Time;durP1;ratioP1;P1;durP2;ratioP2;P2;SDS_P1;SDS_P2;PMS_P1;PMS_P2;Temp;Humidity;BMP_temperature;BMP_pressure;BME280_temperature;BME280_humidity;BME280_pressure;Samples;Min_cycle;Max_cycle;Signal;HPM_P1;HPM_P2
2023/10/02 00:00:31;;;;;;;11.47;7.80;;;20.50;98.50;;;;;;4975365;28;20452;-87
2023/10/02 00:02:57;;;;;;;10.93;7.83;;;20.40;98.40;;;;;;4981673;28;20980;-87
2023/10/02 00:05:40;;;;;;;10.37;7.90;;;20.40;98.40;;;;;;4978237;28;20429;-87
2023/10/02 00:08:25;;;;;;;12.27;8.10;;;20.40;98.40;;;;;;4962084;28;20454;-87
2023/10/02 00:10:55;;;;;;;11.60;7.80;;;20.40;98.40;;;;;;4966234;28;20426;-85
2023/10/02 00:13:25;;;;;;;13.03;8.17;;;20.40;98.40;;;;;;4962801;28;20533;-87
2023/10/02 00:15:53;;;;;;;10.57;7.33;;;20.40;98.40;;;;;;4959269;28;21082;-87
2023/10/02 00:18:22;;;;;;;11.77;7.23;;;20.40;98.40;;;;;;4942870;28;20463;-87
2023/10/02 00:21:17;;;;;;;12.13;8.30;;;20.40;98.40;;;;;;4957382;28;20448;-89
2023/10/02 00:23:36;;;;;;;11.97;8.37;;;20.40;98.40;;;;;;4957625;28;20448;-89
2023/10/02 00:26:04;;;;;;;10.57;7.67;;;20.40;98.30;;;;;;4949203;28;20538;-87
2023/10/02 00:28:33;;;;;;;11.73;7.93;;;20.40;98.40;;;;;;4941456;28;20433;-86
2023/10/02 00:30:59;;;;;;;9.90;7.33;;;20.40;98.30;;;;;;4940553;28;20543;-87
2023/10/02 00:33:27;;;;;;;11.37;8.13;;;20.40;98.50;;;;;;4973539;28;20591;-87
2023/10/02 00:35:56;;;;;;;11.30;7.53;;;20.30;98.40;;;;;;4956138;28;20470;-88
2023/10/02 00:38:23;;;;;;;10.80;8.07;;;20.30;98.30;;;;;;4920141;29;20483;-86
2023/10/02 00:40:49;;;;;;;12.30;9.00;;;20.40;98.40;;;;;;4939760;28;20472;-87
2023/10/02 00:43:33;;;;;;;12.10;8.57;;;20.40;99.00;;;;;;4955455;28;20430;-87
2023/10/02 00:46:23;;;;;;;15.57;7.50;;;20.40;98.50;;;;;;4939448;28;20242;-88
2023/10/02 00:48:51;;;;;;;11.27;7.77;;;20.30;98.30;;;;;;4955391;28;20444;-88
2023/10/02 00:51:17;;;;;;;9.47;7.60;;;20.30;98.40;;;;;;4947418;28;20529;-88
2023/10/02 00:53:48;;;;;;;11.33;8.30;;;20.30;98.30;;;;;;4955579;28;20431;-87
2023/10/02 00:56:23;;;;;;;9.50;6.70;;;20.40;98.40;;;;;;4940872;28;20426;-87
2023/10/02 00:58:58;;;;;;;11.73;8.30;;;20.30;98.30;;;;;;4955879;28;20514;-87
2023/10/02 01:01:25;;;;;;;14.40;8.30;;;20.30;98.20;;;;;;4972030;28;20437;-87
2023/10/02 01:04:10;;;;;;;10.00;7.63;;;20.30;98.20;;;;;;4971835;28;20424;-86
2023/10/02 01:10:07;;;;;;;10.40;7.87;;;20.30;98.10;;;;;;4931021;29;20444;-88
2023/10/02 01:12:43;;;;;;;11.00;7.40;;;20.30;98.10;;;;;;4896430;29;20561;-87
2023/10/02 01:15:15;;;;;;;14.27;9.20;;;20.20;98.10;;;;;;4930884;29;20518;-86
2023/10/02 01:17:49;;;;;;;11.40;7.63;;;20.20;98.10;;;;;;4902186;29;20497;-87
2023/10/02 01:20:32;;;;;;;12.30;7.37;;;20.20;98.10;;;;;;4904079;29;20442;-85
2023/10/02 01:23:15;;;;;;;10.17;7.20;;;20.20;98.10;;;;;;4915244;29;20469;-87
2023/10/02 01:25:42;;;;;;;11.80;8.37;;;20.20;98.10;;;;;;4915320;29;20500;-86
2023/10/02 01:28:15;;;;;;;12.63;8.17;;;20.20;98.10;;;;;;4915519;29;20457;-90
2023/10/02 01:30:45;;;;;;;11.60;8.00;;;20.10;98.00;;;;;;4921609;29;20587;-89
2023/10/02 01:33:15;;;;;;;11.87;8.07;;;20.20;98.00;;;;;;4932465;29;20441;-88
2023/10/02 01:35:48;;;;;;;10.10;7.30;;;20.20;98.00;;;;;;4915934;29;20445;-87
2023/10/02 01:38:30;;;;;;;11.70;7.47;;;20.20;98.00;;;;;;4884991;29;20512;-87
2023/10/02 01:41:04;;;;;;;16.23;8.10;;;20.20;98.00;;;;;;4954159;28;20522;-87
2023/10/02 01:43:44;;;;;;;10.53;7.93;;;20.10;97.90;;;;;;4944107;28;20463;-86
2023/10/02 01:46:17;;;;;;;10.77;7.20;;;20.20;98.00;;;;;;4994157;28;20463;-87
2023/10/02 01:48:44;;;;;;;10.77;7.73;;;20.20;98.00;;;;;;4995094;28;21037;-89
2023/10/02 01:51:25;;;;;;;12.50;7.67;;;20.20;98.00;;;;;;4965059;28;20902;-87
2023/10/02 01:54:02;;;;;;;11.77;8.00;;;20.20;98.00;;;;;;4964944;28;20438;-88
2023/10/02 01:56:30;;;;;;;12.20;7.70;;;20.10;97.90;;;;;;4981339;28;20473;-88
2023/10/02 01:59:14;;;;;;;11.90;7.97;;;20.10;97.90;;;;;;4987370;28;20430;-85
2023/10/02 02:01:52;;;;;;;12.07;8.70;;;20.10;97.90;;;;;;4981586;28;20427;-88
2023/10/02 02:04:27;;;;;;;9.70;7.60;;;20.10;97.90;;;;;;4960955;28;20445;-87
2023/10/02 02:06:56;;;;;;;12.30;7.43;;;20.10;97.90;;;;;;4993163;28;20426;-89
2023/10/02 02:09:30;;;;;;;9.27;7.07;;;20.10;97.90;;;;;;4974265;28;20458;-86
2023/10/02 02:12:10;;;;;;;11.07;8.20;;;20.00;97.90;;;;;;4957564;28;20462;-87
2023/10/02 02:14:51;;;;;;;9.90;7.23;;;20.10;97.90;;;;;;4959190;28;20620;-86
2023/10/02 02:17:27;;;;;;;12.03;7.53;;;20.10;97.90;;;;;;4961136;28;20563;-87
2023/10/02 02:19:56;;;;;;;11.33;7.27;;;20.10;97.90;;;;;;4962175;28;20446;-86
2023/10/02 02:22:31;;;;;;;12.03;7.73;;;20.00;97.80;;;;;;4971639;28;20533;-86
2023/10/02 02:25:00;;;;;;;11.17;7.50;;;20.10;97.90;;;;;;4960832;28;20784;-88
2023/10/02 02:27:29;;;;;;;11.17;8.17;;;20.00;97.80;;;;;;4976853;28;21334;-85
2023/10/02 02:29:59;;;;;;;10.73;7.83;;;20.00;97.90;;;;;;4960102;28;20435;-85
2023/10/02 02:35:27;;;;;;;9.50;6.70;;;20.00;97.90;;;;;;4936749;28;20561;-86
2023/10/02 02:37:54;;;;;;;10.07;6.97;;;20.00;97.80;;;;;;4960624;28;20474;-86
2023/10/02 02:40:25;;;;;;;11.03;7.10;;;20.00;97.90;;;;;;4994184;28;20433;-87
2023/10/02 02:42:52;;;;;;;12.87;7.93;;;20.00;98.00;;;;;;4945195;28;20455;-87
2023/10/02 02:45:28;;;;;;;11.97;8.07;;;20.00;97.90;;;;;;4977046;28;20431;-89
2023/10/02 02:47:57;;;;;;;9.53;7.40;;;20.00;97.90;;;;;;4976917;28;20453;-87
2023/10/02 02:50:33;;;;;;;10.80;7.27;;;20.00;97.80;;;;;;4957146;28;20510;-86
2023/10/02 02:53:21;;;;;;;12.07;8.30;;;20.00;97.80;;;;;;4991976;28;20425;-85
2023/10/02 02:56:10;;;;;;;10.53;7.60;;;20.00;97.80;;;;;;4959888;28;20458;-87
2023/10/02 02:58:38;;;;;;;10.63;8.03;;;19.90;97.80;;;;;;4959953;28;20442;-88
2023/10/02 03:01:11;;;;;;;10.27;7.47;;;20.00;97.90;;;;;;4959712;28;20461;-87
2023/10/02 03:03:41;;;;;;;9.97;7.33;;;20.00;97.90;;;;;;4976052;28;20432;-85
2023/10/02 03:06:23;;;;;;;11.87;7.50;;;19.90;98.00;;;;;;4976177;28;20451;-86
2023/10/02 03:08:51;;;;;;;12.87;8.67;;;19.90;97.80;;;;;;4944539;28;20481;-88
2023/10/02 03:11:22;;;;;;;11.00;7.70;;;19.90;97.80;;;;;;4960855;28;20462;-89
2023/10/02 03:13:49;;;;;;;12.63;8.30;;;19.90;97.80;;;;;;4976092;28;20443;-87
2023/10/02 03:16:28;;;;;;;10.97;8.33;;;19.90;97.80;;;;;;4976384;28;20470;-81
2023/10/02 03:18:54;;;;;;;13.60;7.97;;;19.90;97.80;;;;;;4975588;28;20537;-80
2023/10/02 03:21:24;;;;;;;10.90;8.10;;;19.90;97.80;;;;;;4972541;28;20457;-81
2023/10/02 03:23:54;;;;;;;10.83;8.10;;;19.90;97.80;;;;;;4972634;28;21708;-81
2023/10/02 03:26:27;;;;;;;10.67;7.90;;;19.90;97.80;;;;;;4980758;28;20435;-81
2023/10/02 03:29:03;;;;;;;11.13;7.77;;;19.80;97.80;;;;;;4989361;28;20430;-81
2023/10/02 03:31:37;;;;;;;11.00;8.07;;;19.90;97.80;;;;;;4989626;28;20429;-81
2023/10/02 03:36:54;;;;;;;10.00;7.50;;;19.90;97.80;;;;;;4989644;28;20461;-81
2023/10/02 03:42:21;;;;;;;12.20;7.63;;;19.80;97.80;;;;;;4965987;28;20824;-81
2023/10/02 03:44:50;;;;;;;10.37;7.83;;;19.80;97.80;;;;;;4972587;28;20444;-80
2023/10/02 03:47:22;;;;;;;11.90;9.23;;;19.80;97.80;;;;;;4972437;28;20814;-81
2023/10/02 03:49:50;;;;;;;10.53;8.70;;;19.80;97.80;;;;;;4989503;28;20444;-81
2023/10/02 03:52:19;;;;;;;9.90;7.50;;;19.80;97.80;;;;;;4971913;28;20446;-80
2023/10/02 03:54:45;;;;;;;10.90;7.47;;;19.80;97.80;;;;;;4971924;28;20460;-80
2023/10/02 04:00:09;;;;;;;10.13;8.17;;;19.80;97.80;;;;;;4972042;28;20800;-80
2023/10/02 04:02:38;;;;;;;11.30;7.17;;;19.80;97.90;;;;;;4972372;28;20444;-81
2023/10/02 04:05:04;;;;;;;13.20;8.00;;;19.80;97.90;;;;;;4964462;28;20844;-80
2023/10/02 04:07:33;;;;;;;11.90;8.10;;;19.80;97.90;;;;;;4972770;28;20451;-80
2023/10/02 04:10:08;;;;;;;14.50;7.93;;;19.80;97.90;;;;;;4956481;28;20453;-81
2023/10/02 04:12:50;;;;;;;12.13;8.23;;;19.80;97.90;;;;;;4989105;28;20790;-80
2023/10/02 04:15:18;;;;;;;13.30;9.70;;;19.70;97.90;;;;;;4982899;28;20950;-81
2023/10/02 04:17:49;;;;;;;9.70;8.30;;;19.70;97.90;;;;;;4955856;28;20549;-80
2023/10/02 04:20:27;;;;;;;11.17;8.67;;;19.70;97.90;;;;;;4954690;28;20215;-80
2023/10/02 04:23:18;;;;;;;11.67;8.77;;;19.70;97.90;;;;;;4987676;28;20425;-81
2023/10/02 04:25:44;;;;;;;13.33;8.33;;;19.70;97.90;;;;;;4955323;28;20458;-80
2023/10/02 04:28:12;;;;;;;10.40;7.77;;;19.70;97.90;;;;;;4952533;28;20789;-81
2023/10/02 04:30:38;;;;;;;12.33;9.50;;;19.70;97.90;;;;;;4972356;28;20437;-81
2023/10/02 04:33:08;;;;;;;15.07;8.93;;;19.70;97.90;;;;;;4972238;28;21197;-81
2023/10/02 04:35:45;;;;;;;15.07;8.33;;;19.70;97.90;;;;;;4972541;28;20438;-80
2023/10/02 04:38:15;;;;;;;12.73;8.60;;;19.70;97.90;;;;;;4971352;28;21065;-81
2023/10/02 04:40:49;;;;;;;12.67;7.90;;;19.70;97.90;;;;;;4972300;28;20522;-81
2023/10/02 04:48:59;;;;;;;13.13;8.60;;;19.70;97.90;;;;;;4957269;28;20450;-80
2023/10/02 04:51:29;;;;;;;10.80;8.20;;;19.70;97.90;;;;;;4988701;28;20548;-81
2023/10/02 04:53:58;;;;;;;14.90;9.40;;;19.60;97.80;;;;;;4988349;28;20439;-81
2023/10/02 04:56:25;;;;;;;11.13;8.33;;;19.60;97.80;;;;;;4971409;28;21038;-80
2023/10/02 04:58:52;;;;;;;14.37;8.87;;;19.60;97.80;;;;;;4955369;28;20442;-81
2023/10/02 05:01:41;;;;;;;11.23;8.63;;;19.60;97.90;;;;;;4951972;28;20908;-81
2023/10/02 05:04:18;;;;;;;12.90;8.60;;;19.60;97.80;;;;;;4964084;28;20474;-81
2023/10/02 05:06:55;;;;;;;12.23;7.97;;;19.60;97.80;;;;;;4952396;28;20454;-80
2023/10/02 05:09:26;;;;;;;12.97;8.77;;;19.60;97.80;;;;;;4955408;28;20433;-80
2023/10/02 05:12:22;;;;;;;14.87;8.80;;;19.60;97.80;;;;;;4971108;28;20525;-81
2023/10/02 05:14:51;;;;;;;12.77;8.90;;;19.60;97.80;;;;;;4971333;28;20429;-81
2023/10/02 05:17:17;;;;;;;13.40;8.90;;;19.60;98.30;;;;;;4987136;28;20481;-80
2023/10/02 05:19:57;;;;;;;13.87;8.47;;;19.60;98.50;;;;;;4985203;28;20448;-81
2023/10/02 05:22:27;;;;;;;12.80;9.07;;;19.70;98.00;;;;;;4954917;28;20478;-81
2023/10/02 05:25:04;;;;;;;13.20;8.60;;;19.60;97.90;;;;;;4955207;23;20999;-71
2023/10/02 05:27:32;;;;;;;13.17;8.20;;;19.50;97.90;;;;;;4929761;28;20442;-70
2023/10/02 05:30:14;;;;;;;12.57;8.10;;;19.50;97.90;;;;;;4943378;28;20414;-70
2023/10/02 05:32:44;;;;;;;10.90;8.20;;;19.60;97.90;;;;;;4952441;28;20527;-70
2023/10/02 05:37:42;;;;;;;11.07;7.80;;;19.60;98.00;;;;;;4942901;28;20482;-71
2023/10/02 05:48:11;;;;;;;11.97;8.30;;;19.50;97.80;;;;;;4940464;29;20509;-70
2023/10/02 05:50:52;;;;;;;12.47;8.03;;;19.50;97.80;;;;;;4915583;28;20434;-71
2023/10/02 05:53:21;;;;;;;14.20;8.30;;;19.50;97.90;;;;;;4900812;28;20473;-71
2023/10/02 05:56:05;;;;;;;10.97;8.40;;;19.50;97.90;;;;;;4935865;28;20488;-70
2023/10/02 05:58:33;;;;;;;13.17;8.50;;;19.50;97.80;;;;;;4962850;28;20472;-71
2023/10/02 06:01:03;;;;;;;11.33;7.57;;;19.50;97.90;;;;;;4962766;28;20494;-71
2023/10/02 06:03:36;;;;;;;14.00;8.87;;;19.60;98.00;;;;;;4921333;28;21353;-70
2023/10/02 06:06:15;;;;;;;12.10;8.53;;;19.50;97.90;;;;;;4945349;28;20554;-71
2023/10/02 06:08:49;;;;;;;13.00;8.97;;;19.50;97.90;;;;;;4962572;28;21397;-70
2023/10/02 06:11:27;;;;;;;12.60;9.00;;;19.50;97.90;;;;;;4929576;28;20453;-70
2023/10/02 06:13:58;;;;;;;11.57;8.10;;;19.50;97.90;;;;;;4943088;28;20442;-71
2023/10/02 06:16:30;;;;;;;10.73;7.70;;;19.40;97.90;;;;;;4939848;28;20445;-70
2023/10/02 06:19:02;;;;;;;11.67;8.80;;;19.40;97.90;;;;;;4929462;28;20954;-71
2023/10/02 06:24:27;;;;;;;13.67;8.47;;;19.50;97.90;;;;;;4915260;28;20449;-71
2023/10/02 06:26:57;;;;;;;14.30;9.10;;;19.50;97.90;;;;;;4963989;28;21067;-71
2023/10/02 06:29:36;;;;;;;11.00;8.10;;;19.40;97.90;;;;;;4965831;28;20422;-70
2023/10/02 06:32:11;;;;;;;14.00;9.07;;;19.40;97.90;;;;;;4949509;28;20428;-70
2023/10/02 06:34:44;;;;;;;13.53;9.17;;;19.40;97.90;;;;;;4964680;28;20437;-70
2023/10/02 06:37:16;;;;;;;13.07;8.40;;;19.40;97.90;;;;;;4974509;28;21307;-71
2023/10/02 06:42:48;;;;;;;12.03;8.87;;;19.40;97.90;;;;;;4963885;28;20790;-70
2023/10/02 06:45:26;;;;;;;12.10;8.77;;;19.40;97.90;;;;;;4981141;28;20437;-70
2023/10/02 06:47:59;;;;;;;12.20;8.67;;;19.40;97.90;;;;;;4947571;28;20461;-70
2023/10/02 06:50:30;;;;;;;13.80;8.63;;;19.40;97.80;;;;;;4947371;28;21047;-70
2023/10/02 06:52:59;;;;;;;18.40;10.00;;;19.40;97.90;;;;;;4963849;28;20436;-71
2023/10/02 06:55:29;;;;;;;13.13;9.37;;;19.40;97.90;;;;;;4957966;28;20451;-71
2023/10/02 06:57:57;;;;;;;14.10;9.33;;;19.40;97.90;;;;;;4963664;28;20496;-70
2023/10/02 07:00:36;;;;;;;13.80;8.93;;;19.40;97.90;;;;;;4963989;28;20488;-71
2023/10/02 07:03:06;;;;;;;13.50;8.80;;;19.30;97.90;;;;;;4981199;28;20420;-70
2023/10/02 07:05:32;;;;;;;12.37;9.10;;;19.40;97.90;;;;;;4964587;28;20548;-71
2023/10/02 07:08:17;;;;;;;13.30;8.63;;;19.40;97.90;;;;;;4962638;28;20415;-70
2023/10/02 07:10:51;;;;;;;11.27;7.37;;;19.40;97.90;;;;;;4944674;28;20553;-70
2023/10/02 07:13:20;;;;;;;11.73;8.43;;;19.40;97.90;;;;;;4963428;28;20448;-71
2023/10/02 07:15:47;;;;;;;17.33;10.03;;;19.40;97.80;;;;;;4954560;28;20424;-71
2023/10/02 07:18:17;;;;;;;11.50;7.90;;;19.40;97.80;;;;;;4980935;28;20476;-71
2023/10/02 07:20:43;;;;;;;14.17;8.97;;;19.40;97.90;;;;;;4947510;28;20433;-70
2023/10/02 07:23:19;;;;;;;15.80;10.20;;;19.40;97.80;;;;;;4947032;28;20552;-71
2023/10/02 07:25:55;;;;;;;12.53;8.40;;;19.40;97.90;;;;;;4944051;28;20437;-71
2023/10/02 07:28:21;;;;;;;14.53;9.30;;;19.40;97.90;;;;;;4961029;28;21083;-69
2023/10/02 07:30:50;;;;;;;12.50;9.13;;;19.40;97.90;;;;;;4944046;28;20428;-71
2023/10/02 07:33:19;;;;;;;14.40;8.70;;;19.40;97.90;;;;;;4927606;28;20430;-70
2023/10/02 07:35:56;;;;;;;13.57;9.07;;;19.40;97.90;;;;;;4961872;28;20473;-71
2023/10/02 07:38:30;;;;;;;15.03;8.97;;;19.40;97.90;;;;;;4959999;28;21026;-70
2023/10/02 07:41:06;;;;;;;12.63;8.00;;;19.40;97.90;;;;;;4959583;28;20528;-71
2023/10/02 07:43:32;;;;;;;12.27;8.97;;;19.40;97.90;;;;;;4959640;28;20418;-71
2023/10/02 07:46:22;;;;;;;13.37;9.13;;;19.40;97.90;;;;;;4959838;28;20934;-71
2023/10/02 07:49:12;;;;;;;13.53;7.80;;;19.40;97.90;;;;;;4961118;28;20426;-71
2023/10/02 07:51:40;;;;;;;12.10;8.90;;;19.40;97.90;;;;;;4943134;28;20422;-71
2023/10/02 07:54:07;;;;;;;12.93;9.43;;;19.40;97.90;;;;;;4939479;28;20446;-71
2023/10/02 07:56:35;;;;;;;12.80;8.40;;;19.40;97.90;;;;;;4962504;28;20987;-72
2023/10/02 07:59:07;;;;;;;17.13;8.77;;;19.40;97.90;;;;;;4958375;28;20465;-70
2023/10/02 08:01:39;;;;;;;12.00;7.50;;;19.40;97.80;;;;;;4943518;28;20948;-71
2023/10/02 08:04:06;;;;;;;13.30;9.10;;;19.50;98.00;;;;;;4959037;28;21423;-71
2023/10/02 08:06:33;;;;;;;12.60;8.50;;;19.40;97.90;;;;;;4958851;28;20425;-70
2023/10/02 08:11:50;;;;;;;13.87;8.90;;;19.40;97.80;;;;;;4943184;28;20453;-71
2023/10/02 08:14:47;;;;;;;13.77;9.27;;;19.40;97.90;;;;;;4957938;28;21161;-71
2023/10/02 08:17:22;;;;;;;12.67;8.23;;;19.40;97.90;;;;;;4958584;28;20615;-71
2023/10/02 08:19:56;;;;;;;16.67;9.00;;;19.40;97.90;;;;;;4958784;28;20445;-70
2023/10/02 08:22:27;;;;;;;14.00;8.73;;;19.40;97.90;;;;;;4959101;28;20430;-70
2023/10/02 08:24:56;;;;;;;13.03;8.03;;;19.40;97.90;;;;;;4942304;28;20476;-71
2023/10/02 08:27:22;;;;;;;15.80;9.10;;;19.40;98.00;;;;;;4943079;28;20581;-71
2023/10/02 08:29:48;;;;;;;13.77;9.17;;;19.40;98.00;;;;;;4958804;28;20426;-71
2023/10/02 08:32:28;;;;;;;12.60;8.90;;;19.50;98.00;;;;;;4939995;29;20466;-71
2023/10/02 08:34:55;;;;;;;12.47;8.30;;;19.50;98.00;;;;;;4948554;28;20480;-71
2023/10/02 08:37:23;;;;;;;16.80;10.20;;;19.50;98.00;;;;;;4942887;28;20538;-70
2023/10/02 08:39:51;;;;;;;16.87;10.40;;;19.50;98.00;;;;;;4959084;28;20517;-70
2023/10/02 08:42:24;;;;;;;12.67;8.20;;;19.50;98.00;;;;;;4958490;28;20532;-71
2023/10/02 08:44:58;;;;;;;13.90;9.07;;;19.50;98.00;;;;;;4926788;28;20445;-71
2023/10/02 08:47:25;;;;;;;13.37;9.00;;;19.50;98.00;;;;;;4942925;28;20507;-70
2023/10/02 08:50:05;;;;;;;14.20;8.97;;;19.60;98.10;;;;;;4960025;28;20924;-71
2023/10/02 08:52:51;;;;;;;14.43;9.47;;;19.60;98.10;;;;;;4958624;28;20806;-71
2023/10/02 08:55:51;;;;;;;12.60;8.47;;;19.60;98.10;;;;;;4941379;28;20488;-71
2023/10/02 08:58:22;;;;;;;13.63;9.40;;;19.60;98.10;;;;;;4939550;29;20604;-71
2023/10/02 09:06:53;;;;;;;14.77;8.97;;;19.60;98.30;;;;;;4958960;28;21438;-71
2023/10/02 09:11:57;;;;;;;13.67;8.50;;;19.60;98.50;;;;;;4960766;28;20419;-71
2023/10/02 09:19:53;;;;;;;11.93;9.13;;;19.70;98.50;;;;;;4960385;28;21145;-71
2023/10/02 09:22:25;;;;;;;14.67;8.90;;;19.80;98.50;;;;;;4959580;28;20423;-70
2023/10/02 09:27:56;;;;;;;16.20;9.83;;;19.70;98.40;;;;;;4966157;28;20826;-71
2023/10/02 09:30:36;;;;;;;16.00;9.13;;;19.80;98.50;;;;;;4965796;28;21003;-70
2023/10/02 09:33:22;;;;;;;14.00;9.83;;;19.90;98.50;;;;;;4948745;28;20463;-71
2023/10/02 09:35:52;;;;;;;11.97;8.83;;;19.80;98.50;;;;;;4965173;28;20429;-70
2023/10/02 09:38:23;;;;;;;15.63;9.67;;;19.80;98.40;;;;;;4958806;28;20462;-71
2023/10/02 09:40:58;;;;;;;12.93;8.83;;;19.90;98.40;;;;;;4982736;28;20565;-71
2023/10/02 09:43:35;;;;;;;14.10;10.00;;;19.90;98.50;;;;;;4965036;28;20417;-70
2023/10/02 09:46:22;;;;;;;15.40;9.47;;;19.90;98.40;;;;;;4964970;28;21026;-70
2023/10/02 09:49:02;;;;;;;14.47;9.37;;;20.00;98.50;;;;;;4965120;28;20417;-70
2023/10/02 09:52:09;;;;;;;15.40;10.40;;;20.00;98.40;;;;;;4946189;28;20447;-71
2023/10/02 09:54:41;;;;;;;17.80;10.30;;;20.00;98.50;;;;;;4977555;28;20491;-71
2023/10/02 09:57:24;;;;;;;14.53;9.83;;;20.00;98.50;;;;;;4981646;28;20485;-70
2023/10/02 09:59:55;;;;;;;15.40;10.73;;;20.10;98.60;;;;;;4964256;28;20497;-69
2023/10/02 10:07:52;;;;;;;14.30;9.70;;;20.10;98.70;;;;;;4948919;28;20470;-70
2023/10/02 10:11:10;;;;;;;15.17;10.20;;;20.20;98.80;;;;;;4968370;28;20453;-71
2023/10/02 10:13:32;;;;;;;15.77;10.60;;;20.20;98.70;;;;;;4996962;28;21249;-70
2023/10/02 10:16:18;;;;;;;13.60;9.37;;;20.10;98.70;;;;;;4972498;28;20483;-71
2023/10/02 10:21:56;;;;;;;18.40;10.90;;;20.30;98.80;;;;;;4981745;28;21058;-71
2023/10/02 10:28:06;;;;;;;15.77;9.90;;;20.30;98.80;;;;;;4962283;28;20447;-70
2023/10/02 10:30:46;;;;;;;14.70;10.20;;;20.30;98.80;;;;;;4962311;28;20409;-70
2023/10/02 10:33:27;;;;;;;;;;;;;;;;;;;;;
2023/10/02 10:35:56;;;;;;;14.30;9.73;;;20.50;98.90;;;;;;4949181;28;20430;-70
2023/10/02 10:38:45;;;;;;;17.10;9.63;;;20.40;98.90;;;;;;4981495;28;20465;-70
2023/10/02 10:41:30;;;;;;;18.10;10.90;;;20.40;98.90;;;;;;4980992;28;20420;-71
2023/10/02 10:44:06;;;;;;;14.87;10.50;;;20.40;98.90;;;;;;4961772;28;20435;-71
2023/10/02 10:46:37;;;;;;;15.23;10.27;;;20.50;99.00;;;;;;4981550;28;20414;-71
2023/10/02 10:49:23;;;;;;;15.23;9.90;;;20.50;99.00;;;;;;4963117;28;20419;-70
2023/10/02 10:51:52;;;;;;;14.67;10.03;;;20.50;99.00;;;;;;4947642;28;20462;-70
2023/10/02 10:59:46;;;;;;;14.23;10.30;;;20.60;99.10;;;;;;4932135;28;20423;-70
2023/10/02 11:02:16;;;;;;;16.20;9.73;;;20.60;99.10;;;;;;4939991;28;20851;-71
2023/10/02 11:04:47;;;;;;;15.17;10.80;;;20.70;99.10;;;;;;4964008;28;20454;-70
2023/10/02 11:07:23;;;;;;;15.43;9.50;;;20.80;99.20;;;;;;4947684;28;20426;-71
2023/10/02 11:12:56;;;;;;;19.83;9.87;;;20.70;99.20;;;;;;4962536;28;20545;-72
2023/10/02 11:18:21;;;;;;;17.13;11.47;;;20.80;99.10;;;;;;4962134;28;21032;-73
2023/10/02 11:20:55;;;;;;;21.83;10.97;;;20.90;99.20;;;;;;4969016;28;21789;-73
2023/10/02 11:23:37;;;;;;;17.53;11.47;;;20.80;99.10;;;;;;4972511;28;20429;-73
2023/10/02 11:26:23;;;;;;;16.87;10.30;;;20.90;99.20;;;;;;5061736;23;20506;-74
2023/10/02 11:28:57;;;;;;;17.77;11.63;;;20.90;99.20;;;;;;4981409;28;20474;-73
2023/10/02 11:31:33;;;;;;;15.00;10.77;;;21.00;99.30;;;;;;4989660;28;20798;-73
2023/10/02 11:34:08;;;;;;;20.20;11.67;;;21.00;99.40;;;;;;4979353;28;20438;-73
2023/10/02 11:36:39;;;;;;;16.70;11.60;;;21.10;99.50;;;;;;4976507;28;20418;-73
2023/10/02 11:39:19;;;;;;;19.10;12.20;;;21.10;99.50;;;;;;4942391;28;20443;-73
2023/10/02 11:41:49;;;;;;;18.43;11.33;;;21.10;99.50;;;;;;4948103;28;20877;-73
2023/10/02 11:44:15;;;;;;;17.83;11.13;;;21.10;99.40;;;;;;4975478;28;20447;-73
2023/10/02 11:46:48;;;;;;;17.60;11.17;;;21.10;99.40;;;;;;4960852;28;21296;-73
2023/10/02 11:49:15;;;;;;;18.60;10.90;;;21.10;99.50;;;;;;4979763;28;20919;-73
2023/10/02 11:51:43;;;;;;;16.43;10.60;;;21.20;99.40;;;;;;4956645;28;20447;-73
2023/10/02 11:54:17;;;;;;;15.67;11.00;;;21.30;99.60;;;;;;4968072;28;20460;-73
2023/10/02 11:56:46;;;;;;;19.93;12.40;;;21.30;99.60;;;;;;4961455;28;20450;-73
2023/10/02 11:59:16;;;;;;;17.83;11.70;;;21.30;99.50;;;;;;4944381;28;21183;-73
2023/10/02 12:01:45;;;;;;;18.17;11.57;;;21.40;99.60;;;;;;4969231;28;20444;-73
2023/10/02 12:04:14;;;;;;;19.63;10.73;;;21.30;99.60;;;;;;4973679;28;20443;-73
2023/10/02 12:06:44;;;;;;;18.47;11.70;;;21.40;99.70;;;;;;4972835;28;21086;-73
2023/10/02 12:09:17;;;;;;;18.43;11.47;;;21.40;99.70;;;;;;4973996;28;20451;-73
2023/10/02 12:11:46;;;;;;;16.27;11.33;;;21.40;99.60;;;;;;4973163;28;20432;-73
2023/10/02 12:14:12;;;;;;;16.10;12.07;;;21.50;99.60;;;;;;4964851;28;20481;-73
2023/10/02 12:16:43;;;;;;;21.57;11.80;;;21.50;99.80;;;;;;4969742;28;20441;-73
2023/10/02 12:19:10;;;;;;;17.10;11.40;;;21.50;99.80;;;;;;4981000;28;20448;-73
2023/10/02 12:21:37;;;;;;;16.73;11.00;;;21.60;99.80;;;;;;4966535;28;20428;-73
2023/10/02 12:24:07;;;;;;;17.77;10.50;;;21.60;99.80;;;;;;4969610;28;20865;-73
2023/10/02 12:26:40;;;;;;;18.83;12.27;;;21.60;99.90;;;;;;4948089;28;20598;-73
2023/10/02 12:29:06;;;;;;;18.97;11.27;;;21.70;99.80;;;;;;4936665;28;20434;-73
2023/10/02 12:31:36;;;;;;;15.83;10.93;;;21.60;99.90;;;;;;4951061;28;20432;-74
2023/10/02 12:34:05;;;;;;;18.90;11.90;;;21.70;99.90;;;;;;4980720;28;20607;-73
2023/10/02 12:36:34;;;;;;;17.67;12.50;;;21.70;99.90;;;;;;4932983;28;20469;-73
2023/10/02 12:39:04;;;;;;;16.53;10.63;;;21.70;99.90;;;;;;4931335;28;20476;-73
2023/10/02 12:41:37;;;;;;;19.23;11.53;;;21.70;99.90;;;;;;4977834;28;20455;-73
2023/10/02 12:44:03;;;;;;;19.00;10.77;;;21.80;99.90;;;;;;4973837;28;21053;-73
2023/10/02 12:46:31;;;;;;;17.20;12.13;;;21.80;99.90;;;;;;4940518;28;20441;-73
2023/10/02 12:49:01;;;;;;;18.07;11.10;;;21.80;99.90;;;;;;4945557;28;20588;-73
2023/10/02 12:51:29;;;;;;;17.00;11.07;;;21.90;99.90;;;;;;4944588;28;20442;-74
2023/10/02 12:53:56;;;;;;;19.87;12.23;;;21.90;99.90;;;;;;4928937;28;20475;-74
2023/10/02 12:56:24;;;;;;;17.60;11.27;;;21.90;99.90;;;;;;4948407;28;20425;-72
2023/10/02 12:58:54;;;;;;;15.30;10.90;;;21.90;99.90;;;;;;4962145;28;20979;-72
2023/10/02 13:01:24;;;;;;;19.80;11.77;;;21.90;99.90;;;;;;4962331;28;20497;-72
2023/10/02 13:03:59;;;;;;;18.57;10.80;;;22.00;99.90;;;;;;4946559;28;20476;-71
2023/10/02 13:06:29;;;;;;;16.57;10.93;;;21.90;99.90;;;;;;4939717;28;20837;-72
2023/10/02 13:09:15;;;;;;;16.17;11.17;;;22.00;99.90;;;;;;4963505;28;20789;-72
2023/10/02 13:11:44;;;;;;;19.23;10.87;;;22.00;99.90;;;;;;4933444;28;20441;-72
2023/10/02 13:14:16;;;;;;;15.37;9.63;;;22.10;99.90;;;;;;4962946;28;20876;-72
2023/10/02 13:16:48;;;;;;;17.67;10.70;;;22.00;99.90;;;;;;4960917;28;20881;-72
2023/10/02 13:19:17;;;;;;;18.43;11.63;;;22.10;99.90;;;;;;4957997;28;20505;-72
2023/10/02 13:21:45;;;;;;;16.73;10.70;;;22.10;99.90;;;;;;4942143;28;20476;-72
2023/10/02 13:24:15;;;;;;;18.80;11.40;;;22.00;99.90;;;;;;4972459;28;20936;-72
2023/10/02 13:26:44;;;;;;;17.20;11.00;;;22.20;99.90;;;;;;4973346;28;20532;-72
2023/10/02 13:29:11;;;;;;;16.87;11.50;;;22.20;99.90;;;;;;4946217;28;20438;-72
2023/10/02 13:31:39;;;;;;;15.67;10.97;;;22.10;99.90;;;;;;4977993;28;20439;-72
2023/10/02 13:34:11;;;;;;;15.63;10.73;;;22.10;99.90;;;;;;4961373;28;20457;-72
2023/10/02 13:36:37;;;;;;;14.43;9.97;;;22.30;99.90;;;;;;4929948;28;20428;-72
2023/10/02 13:39:12;;;;;;;18.50;10.70;;;22.20;99.90;;;;;;4983041;28;20922;-72
2023/10/02 13:41:42;;;;;;;15.63;10.40;;;22.20;99.90;;;;;;4981179;28;20546;-72
2023/10/02 13:44:09;;;;;;;16.50;10.83;;;22.20;99.90;;;;;;4965380;28;20456;-72
2023/10/02 13:46:38;;;;;;;14.50;9.83;;;22.20;99.90;;;;;;4959526;28;21253;-73
2023/10/02 13:49:07;;;;;;;14.50;10.40;;;22.30;99.90;;;;;;4995045;28;20485;-73
2023/10/02 13:51:34;;;;;;;16.77;10.87;;;22.30;99.90;;;;;;4950345;28;20449;-72
2023/10/02 13:54:01;;;;;;;14.90;10.40;;;22.30;99.80;;;;;;4964380;28;20495;-72
2023/10/02 13:56:32;;;;;;;14.37;11.20;;;22.30;99.90;;;;;;4987857;28;20858;-72
2023/10/02 13:58:59;;;;;;;15.33;10.60;;;22.30;99.70;;;;;;4978273;28;20475;-71
2023/10/02 14:01:26;;;;;;;14.53;10.50;;;22.30;99.90;;;;;;4975609;28;20439;-72
2023/10/02 14:03:53;;;;;;;16.70;11.87;;;22.40;99.90;;;;;;4980057;28;20451;-72
2023/10/02 14:06:23;;;;;;;16.40;10.60;;;22.30;99.80;;;;;;4960115;28;20447;-71
2023/10/02 14:08:54;;;;;;;16.03;10.83;;;22.40;99.90;;;;;;4985250;28;20535;-71
2023/10/02 14:11:23;;;;;;;14.50;9.70;;;22.40;99.90;;;;;;4966793;28;20523;-72
2023/10/02 14:13:49;;;;;;;15.77;10.30;;;22.30;99.90;;;;;;4972206;28;21003;-72
2023/10/02 14:16:19;;;;;;;14.00;10.27;;;22.40;99.90;;;;;;4960329;28;20597;-72
2023/10/02 14:18:53;;;;;;;13.80;9.90;;;22.40;99.90;;;;;;5000262;28;20540;-72
2023/10/02 14:21:23;;;;;;;13.87;10.10;;;22.50;99.90;;;;;;4981702;28;20443;-72
2023/10/02 14:23:57;;;;;;;17.17;10.60;;;22.50;99.90;;;;;;4982091;28;20549;-72